Time;durP1;ratioP1;P1;durP2;ratioP2;P2;SDS_P1;SDS_P2;PMS_P1;PMS_P2;Temp;Humidity;BMP_temperature;BMP_pressure;BME280_temperature;BME280_humidity;BME280_pressure;Samples;Min_cycle;Max_cycle;Signal;HPM_P1;HPM_P2
2022/09/07 00:01:04;;;;;;;;;;;17.90;99.90;;;;;;5117527;28;20382;-77
2022/09/07 00:03:30;;;;;;;;;;;17.90;99.90;;;;;;5116948;28;20007;-77
2022/09/07 00:05:56;;;;;;;;;;;17.90;99.90;;;;;;5117014;28;19965;-77
2022/09/07 00:08:22;;;;;;;;;;;17.80;99.90;;;;;;5098525;28;19907;-77
2022/09/07 00:10:52;;;;;;;;;;;17.70;99.90;;;;;;5132524;27;19935;-78
2022/09/07 00:13:18;;;;;;;;;;;17.70;99.90;;;;;;5116521;28;20408;-78
2022/09/07 00:15:44;;;;;;;;;;;17.60;99.90;;;;;;5116675;28;19908;-77
2022/09/07 00:18:09;;;;;;;;;;;17.50;99.90;;;;;;5116680;28;19918;-77
2022/09/07 00:20:35;;;;;;;;;;;17.40;99.90;;;;;;5116902;28;20417;-78
2022/09/07 00:23:00;;;;;;;;;;;17.50;99.90;;;;;;5116588;28;19908;-78
2022/09/07 00:25:26;;;;;;;;;;;17.40;99.90;;;;;;5116621;28;19908;-77
2022/09/07 00:27:51;;;;;;;;;;;17.50;99.90;;;;;;5116404;28;19908;-77
2022/09/07 00:30:17;;;;;;;;;;;17.40;99.90;;;;;;5116527;28;19919;-78
2022/09/07 00:32:42;;;;;;;;;;;17.50;99.90;;;;;;5116478;28;20386;-78
2022/09/07 00:35:08;;;;;;;;;;;17.40;99.90;;;;;;5116591;28;20372;-77
2022/09/07 00:37:34;;;;;;;;;;;17.40;99.90;;;;;;5116399;28;19947;-77
2022/09/07 00:39:59;;;;;;;;;;;17.40;99.90;;;;;;5116184;28;19912;-77
2022/09/07 00:42:25;;;;;;;;;;;17.40;99.90;;;;;;5116644;28;19915;-78
2022/09/07 00:45:09;;;;;;;;;;;17.30;99.90;;;;;;5115971;28;19949;-78
2022/09/07 00:48:01;;;;;;;;;;;17.30;99.90;;;;;;5116102;28;19908;-78
2022/09/07 00:50:38;;;;;;;;;;;17.40;99.90;;;;;;5110692;28;19912;-77
2022/09/07 00:53:05;;;;;;;;;;;17.40;99.90;;;;;;5116105;28;20048;-78
2022/09/07 00:55:32;;;;;;;;;;;17.40;99.90;;;;;;5115900;28;20279;-77
2022/09/07 00:57:58;;;;;;;;;;;17.30;99.90;;;;;;5097536;28;19908;-77
2022/09/07 01:00:25;;;;;;;;;;;17.40;99.90;;;;;;5116748;28;19995;-78
2022/09/07 01:02:53;;;;;;;;;;;17.40;99.90;;;;;;5115810;28;20002;-76
2022/09/07 01:05:22;;;;;;;;;;;17.40;99.90;;;;;;5115864;28;19908;-77
2022/09/07 01:07:48;;;;;;;;;;;17.40;99.90;;;;;;5115963;28;19908;-77
2022/09/07 01:10:14;;;;;;;;;;;17.40;99.90;;;;;;5115531;28;19934;-77
2022/09/07 01:12:39;;;;;;;;;;;17.40;99.90;;;;;;5115564;28;20022;-77
2022/09/07 01:15:05;;;;;;;;;;;17.30;99.90;;;;;;5115537;28;20421;-77
2022/09/07 01:17:33;;;;;;;;;;;17.30;99.90;;;;;;5115718;28;19957;-78
2022/09/07 01:20:17;;;;;;;;;;;17.30;99.90;;;;;;5115438;28;20356;-78
2022/09/07 01:22:46;;;;;;;;;;;17.30;99.90;;;;;;5115765;28;19930;-77
2022/09/07 01:25:30;;;;;;;;;;;17.20;99.90;;;;;;5114581;28;19908;-77
2022/09/07 01:28:15;;;;;;;;;;;17.20;99.90;;;;;;5115321;28;19907;-77
2022/09/07 01:30:44;;;;;;;;;;;17.10;99.90;;;;;;5115116;28;19919;-77
2022/09/07 01:33:23;;;;;;;;;;;17.00;99.90;;;;;;5115189;28;19918;-77
2022/09/07 01:35:55;;;;;;;;;;;16.90;99.90;;;;;;5115273;28;19996;-76
2022/09/07 01:38:30;;;;;;;;;;;16.90;99.90;;;;;;5096514;28;20331;-77
2022/09/07 01:41:04;;;;;;;;;;;16.90;99.90;;;;;;5114952;28;19908;-77
2022/09/07 01:43:35;;;;;;;;;;;17.00;99.90;;;;;;5114880;28;19912;-77
2022/09/07 01:46:02;;;;;;;;;;;17.10;99.90;;;;;;5114552;28;20002;-77
2022/09/07 01:48:30;;;;;;;;;;;17.10;99.90;;;;;;5114951;28;19908;-77
2022/09/07 01:50:58;;;;;;;;;;;17.10;99.90;;;;;;5115057;28;19956;-78
2022/09/07 01:53:35;;;;;;;;;;;17.20;99.90;;;;;;5115034;28;19943;-78
2022/09/07 01:56:07;;;;;;;;;;;17.20;99.90;;;;;;5114754;28;19961;-78
2022/09/07 01:58:36;;;;;;;;;;;17.10;99.90;;;;;;5114672;28;20065;-77
2022/09/07 02:01:06;;;;;;;;;;;17.10;99.90;;;;;;5115177;28;20006;-78
2022/09/07 02:03:38;;;;;;;;;;;17.10;99.90;;;;;;5114863;28;19936;-77
2022/09/07 02:06:09;;;;;;;;;;;17.10;99.90;;;;;;5114546;28;19908;-78
2022/09/07 02:08:34;;;;;;;;;;;17.10;99.90;;;;;;5114538;28;19958;-77
2022/09/07 02:11:06;;;;;;;;;;;17.20;99.90;;;;;;5114482;28;19947;-77
2022/09/07 02:13:41;;;;;;;;;;;17.20;99.90;;;;;;5114451;28;19957;-77
2022/09/07 02:16:15;;;;;;;;;;;17.30;99.90;;;;;;5114497;28;19935;-76
2022/09/07 02:18:43;;;;;;;;;;;17.20;99.90;;;;;;5114372;28;19914;-78
2022/09/07 02:21:09;;;;;;;;;;;17.20;99.90;;;;;;5114294;28;19912;-77
2022/09/07 02:23:39;;;;;;;;;;;17.20;99.90;;;;;;5114411;28;19908;-77
2022/09/07 02:26:09;;;;;;;;;;;17.20;99.90;;;;;;5096040;28;19914;-78
2022/09/07 02:28:35;;;;;;;;;;;17.10;99.90;;;;;;5114388;28;19908;-77
2022/09/07 02:31:01;;;;;;;;;;;17.10;99.90;;;;;;5114415;28;19908;-77
2022/09/07 02:33:27;;;;;;;;;;;17.20;99.90;;;;;;5114220;28;19907;-77
2022/09/07 02:35:53;;;;;;;;;;;17.20;99.90;;;;;;5114087;28;20257;-77
2022/09/07 02:38:19;;;;;;;;;;;17.30;99.90;;;;;;5114234;28;19912;-76
2022/09/07 02:40:51;;;;;;;;;;;17.30;99.90;;;;;;5114088;28;19907;-78
2022/09/07 02:43:17;;;;;;;;;;;17.30;99.90;;;;;;5114127;28;19915;-77
2022/09/07 02:45:53;;;;;;;;;;;17.30;99.90;;;;;;5113906;28;19998;-78
2022/09/07 02:48:39;;;;;;;;;;;17.30;99.90;;;;;;5114195;28;19956;-77
2022/09/07 02:51:27;;;;;;;;;;;17.20;99.90;;;;;;5114506;28;19915;-77
2022/09/07 02:54:12;;;;;;;;;;;17.20;99.90;;;;;;5109272;28;19908;-78
2022/09/07 02:56:45;;;;;;;;;;;17.20;99.90;;;;;;5113996;28;20381;-76
2022/09/07 02:59:28;;;;;;;;;;;17.10;99.90;;;;;;5114362;28;19914;-77
2022/09/07 03:01:59;;;;;;;;;;;17.20;99.90;;;;;;5114237;28;19973;-78
2022/09/07 03:04:25;;;;;;;;;;;17.20;99.90;;;;;;5114009;28;20356;-78
2022/09/07 03:07:17;;;;;;;;;;;17.20;99.90;;;;;;5113943;28;19918;-77
2022/09/07 03:09:44;;;;;;;;;;;17.20;99.90;;;;;;5108811;28;19911;-77
2022/09/07 03:12:11;;;;;;;;;;;17.20;99.90;;;;;;5113899;28;19911;-78
2022/09/07 03:14:39;;;;;;;;;;;17.10;99.90;;;;;;5113834;28;19951;-78
2022/09/07 03:17:04;;;;;;;;;;;17.20;99.90;;;;;;5114353;28;19915;-78
2022/09/07 03:19:30;;;;;;;;;;;17.10;99.90;;;;;;5095499;28;19908;-77
2022/09/07 03:21:55;;;;;;;;;;;17.10;99.90;;;;;;5095523;28;20275;-78
2022/09/07 03:24:21;;;;;;;;;;;17.10;99.90;;;;;;5113740;28;19915;-77
2022/09/07 03:26:56;;;;;;;;;;;17.00;99.90;;;;;;5113848;28;19923;-77
2022/09/07 03:29:22;;;;;;;;;;;17.00;99.90;;;;;;5113876;28;19912;-77
2022/09/07 03:31:47;;;;;;;;;;;17.10;99.90;;;;;;5113757;28;19914;-77
2022/09/07 03:34:13;;;;;;;;;;;17.10;99.90;;;;;;5113632;28;19957;-77
2022/09/07 03:36:39;;;;;;;;;;;17.10;99.90;;;;;;5113610;28;19908;-76
2022/09/07 03:39:06;;;;;;;;;;;17.10;99.90;;;;;;5113612;28;20430;-77
2022/09/07 03:41:31;;;;;;;;;;;17.10;99.90;;;;;;5113716;28;19914;-78
2022/09/07 03:44:01;;;;;;;;;;;17.10;99.90;;;;;;5113451;28;20352;-78
2022/09/07 03:46:26;;;;;;;;;;;17.10;99.90;;;;;;5113051;28;19963;-78
2022/09/07 03:48:52;;;;;;;;;;;17.00;99.90;;;;;;5117092;28;20261;-77
2022/09/07 03:51:18;;;;;;;;;;;17.00;99.90;;;;;;5117219;28;19915;-76
2022/09/07 03:53:44;;;;;;;;;;;16.90;99.90;;;;;;5117478;28;19908;-77
2022/09/07 03:56:12;;;;;;;;;;;16.90;99.90;;;;;;5117090;28;19934;-77
2022/09/07 03:58:38;;;;;;;;;;;16.90;99.90;;;;;;5117038;28;19908;-77
2022/09/07 04:01:05;;;;;;;;;;;17.00;99.90;;;;;;5117532;28;20481;-77
2022/09/07 04:03:31;;;;;;;;;;;16.90;99.90;;;;;;5116975;28;19923;-77
2022/09/07 04:05:57;;;;;;;;;;;16.90;99.90;;;;;;5116935;28;19907;-77
2022/09/07 04:08:27;;;;;;;;;;;16.80;99.90;;;;;;5117036;28;19908;-76
2022/09/07 04:10:55;;;;;;;;;;;16.80;99.90;;;;;;5116752;28;20376;-77
2022/09/07 04:13:20;;;;;;;;;;;16.70;99.90;;;;;;5116564;28;19908;-78
2022/09/07 04:15:46;;;;;;;;;;;16.70;99.90;;;;;;5116724;28;19915;-77
2022/09/07 04:18:12;;;;;;;;;;;16.80;99.90;;;;;;5116999;28;19930;-78
2022/09/07 04:20:37;;;;;;;;;;;16.70;99.90;;;;;;5116722;28;19908;-78
2022/09/07 04:23:03;;;;;;;;;;;16.70;99.90;;;;;;5116555;28;20372;-78
2022/09/07 04:25:28;;;;;;;;;;;16.70;99.90;;;;;;5098254;28;19908;-77
2022/09/07 04:27:54;;;;;;;;;;;16.70;99.90;;;;;;5116517;28;20379;-78
2022/09/07 04:30:20;;;;;;;;;;;16.60;99.90;;;;;;5116585;28;19939;-77
2022/09/07 04:32:46;;;;;;;;;;;16.60;99.90;;;;;;5116509;28;19950;-76
2022/09/07 04:35:12;;;;;;;;;;;16.60;99.90;;;;;;5116330;28;19915;-77
2022/09/07 04:37:37;;;;;;;;;;;16.70;99.90;;;;;;5116307;28;19908;-77
2022/09/07 04:40:04;;;;;;;;;;;16.60;99.90;;;;;;5116638;28;19947;-77
2022/09/07 04:42:29;;;;;;;;;;;16.60;99.90;;;;;;5116180;28;19915;-77
2022/09/07 04:44:55;;;;;;;;;;;16.60;99.90;;;;;;5115869;28;20284;-77
2022/09/07 04:47:21;;;;;;;;;;;16.70;99.90;;;;;;5116098;28;19908;-77
2022/09/07 04:49:50;;;;;;;;;;;16.70;99.90;;;;;;5115917;28;19919;-77
2022/09/07 04:52:16;;;;;;;;;;;16.70;99.90;;;;;;5116005;28;19915;-77
2022/09/07 04:54:42;;;;;;;;;;;16.70;99.90;;;;;;5115943;28;20283;-76
2022/09/07 04:57:10;;;;;;;;;;;16.80;99.90;;;;;;5115947;28;19908;-77
2022/09/07 04:59:36;;;;;;;;;;;16.80;99.90;;;;;;5114926;28;19908;-77
2022/09/07 05:02:02;;;;;;;;;;;16.80;99.90;;;;;;5116341;28;19953;-76
2022/09/07 05:04:27;;;;;;;;;;;16.90;99.90;;;;;;5115921;28;19908;-78
2022/09/07 05:06:53;;;;;;;;;;;16.90;99.90;;;;;;5115780;28;20287;-76
2022/09/07 05:09:19;;;;;;;;;;;16.90;99.90;;;;;;5115554;28;19918;-76
2022/09/07 05:11:44;;;;;;;;;;;16.90;99.90;;;;;;5115567;28;19908;-77
2022/09/07 05:14:10;;;;;;;;;;;16.90;99.90;;;;;;5115816;28;19915;-77
2022/09/07 05:16:35;;;;;;;;;;;16.90;99.90;;;;;;5115530;28;20279;-78
2022/09/07 05:19:02;;;;;;;;;;;16.90;99.90;;;;;;5115474;28;19908;-77
2022/09/07 05:21:29;;;;;;;;;;;16.90;99.90;;;;;;5115651;28;20365;-78
2022/09/07 05:23:56;;;;;;;;;;;16.80;99.90;;;;;;5115381;28;19914;-78
2022/09/07 05:26:22;;;;;;;;;;;16.80;99.90;;;;;;5115457;28;19908;-78
2022/09/07 05:28:48;;;;;;;;;;;16.90;99.90;;;;;;5115204;28;19908;-77
2022/09/07 05:31:15;;;;;;;;;;;16.80;99.90;;;;;;5115218;28;19915;-77
2022/09/07 05:33:47;;;;;;;;;;;16.80;99.90;;;;;;5115191;28;20458;-77
2022/09/07 05:36:13;;;;;;;;;;;16.80;99.90;;;;;;5115123;28;19908;-78
2022/09/07 05:38:39;;;;;;;;;;;16.90;99.90;;;;;;5115139;28;19908;-77
2022/09/07 05:41:14;;;;;;;;;;;16.90;99.90;;;;;;5115033;28;19934;-77
2022/09/07 05:43:40;;;;;;;;;;;16.80;99.90;;;;;;5096609;28;19947;-77
2022/09/07 05:46:06;;;;;;;;;;;16.90;99.90;;;;;;5114822;28;20330;-77
2022/09/07 05:48:32;;;;;;;;;;;16.90;99.90;;;;;;5114967;28;19914;-76
2022/09/07 05:50:57;;;;;;;;;;;16.90;99.90;;;;;;5114847;28;19958;-77
2022/09/07 05:53:23;;;;;;;;;;;17.00;99.90;;;;;;5114660;28;19908;-77
2022/09/07 05:55:49;;;;;;;;;;;17.00;99.90;;;;;;5115054;28;19915;-77
2022/09/07 05:58:15;;;;;;;;;;;17.00;99.90;;;;;;5114608;28;20002;-78
2022/09/07 06:00:41;;;;;;;;;;;17.10;99.90;;;;;;5115071;28;19907;-78
2022/09/07 06:03:07;;;;;;;;;;;17.20;99.90;;;;;;5114578;28;19915;-78
2022/09/07 06:05:32;;;;;;;;;;;17.10;99.90;;;;;;5096325;28;19908;-78
2022/09/07 06:07:58;;;;;;;;;;;17.20;99.90;;;;;;5114603;28;19907;-76
2022/09/07 06:10:24;;;;;;;;;;;17.20;99.90;;;;;;5114293;28;19920;-77
2022/09/07 06:12:50;;;;;;;;;;;17.30;99.90;;;;;;5114481;28;20003;-78
2022/09/07 06:15:16;;;;;;;;;;;17.30;99.90;;;;;;5114488;28;19951;-76
2022/09/07 06:17:41;;;;;;;;;;;17.30;99.90;;;;;;5114573;28;19908;-78
2022/09/07 06:20:08;;;;;;;;;;;17.20;99.90;;;;;;5114403;28;19980;-77
2022/09/07 06:22:34;;;;;;;;;;;17.30;99.90;;;;;;5096184;28;19911;-77
2022/09/07 06:25:00;;;;;;;;;;;17.50;99.90;;;;;;5114419;28;19912;-78
2022/09/07 06:27:25;;;;;;;;;;;17.50;99.90;;;;;;5114274;28;19952;-78
2022/09/07 06:29:51;;;;;;;;;;;17.60;99.90;;;;;;5114460;28;20006;-77
2022/09/07 06:32:16;;;;;;;;;;;17.70;99.90;;;;;;5114315;28;19908;-78
2022/09/07 06:34:42;;;;;;;;;;;17.80;99.90;;;;;;5095976;28;20275;-77
2022/09/07 06:37:08;;;;;;;;;;;17.90;99.90;;;;;;5114204;28;20330;-77
2022/09/07 06:39:35;;;;;;;;;;;17.90;99.90;;;;;;5114366;28;19915;-77
2022/09/07 06:42:02;;;;;;;;;;;17.90;99.90;;;;;;5114389;28;20279;-77
2022/09/07 06:44:28;;;;;;;;;;;17.90;99.90;;;;;;5113815;28;19916;-77
2022/09/07 06:46:53;;;;;;;;;;;17.90;99.90;;;;;;5114124;28;19994;-77
2022/09/07 06:49:19;;;;;;;;;;;18.10;99.90;;;;;;5113989;28;20018;-78
2022/09/07 06:51:44;;;;;;;;;;;18.30;99.90;;;;;;5114036;28;19908;-77
2022/09/07 06:54:10;;;;;;;;;;;18.40;99.90;;;;;;5114029;28;20433;-78
2022/09/07 06:56:36;;;;;;;;;;;18.40;99.90;;;;;;5114025;28;20002;-78
2022/09/07 06:59:01;;;;;;;;;;;18.40;99.90;;;;;;5113971;28;20287;-77
2022/09/07 07:01:28;;;;;;;;;;;18.30;99.90;;;;;;5114422;28;19908;-77
2022/09/07 07:03:53;;;;;;;;;;;18.30;99.90;;;;;;5095684;28;19908;-77
2022/09/07 07:06:19;;;;;;;;;;;18.50;99.90;;;;;;5113906;28;19918;-78
2022/09/07 07:08:45;;;;;;;;;;;18.60;99.90;;;;;;5113834;28;19908;-77
2022/09/07 07:11:12;;;;;;;;;;;18.70;99.90;;;;;;5113842;28;19950;-77
2022/09/07 07:13:38;;;;;;;;;;;18.80;99.90;;;;;;5113846;28;19915;-77
2022/09/07 07:16:07;;;;;;;;;;;18.90;99.90;;;;;;5129643;28;20383;-77
2022/09/07 07:18:33;;;;;;;;;;;18.90;99.90;;;;;;5114043;28;19908;-77
2022/09/07 07:21:03;;;;;;;;;;;18.90;99.90;;;;;;5113855;28;19908;-78
2022/09/07 07:23:29;;;;;;;;;;;18.90;99.90;;;;;;5116994;28;19908;-77
2022/09/07 07:25:54;;;;;;;;;;;19.10;99.90;;;;;;5117621;28;19915;-78
2022/09/07 07:28:22;;;;;;;;;;;19.30;99.90;;;;;;5117678;28;19912;-78
2022/09/07 07:30:53;;;;;;;;;;;19.40;99.90;;;;;;5117567;28;19912;-78
2022/09/07 07:33:19;;;;;;;;;;;19.60;99.90;;;;;;5117849;28;20321;-78
2022/09/07 07:35:44;;;;;;;;;;;19.90;99.90;;;;;;5117880;28;19938;-78
2022/09/07 07:38:10;;;;;;;;;;;20.30;99.90;;;;;;5117431;28;19911;-77
2022/09/07 07:40:35;;;;;;;;;;;20.40;99.90;;;;;;5117438;28;19908;-77
2022/09/07 07:43:01;;;;;;;;;;;20.80;99.90;;;;;;5117420;28;20284;-79
2022/09/07 07:45:27;;;;;;;;;;;20.40;99.90;;;;;;5117052;28;20010;-78
2022/09/07 07:47:52;;;;;;;;;;;20.20;99.90;;;;;;5117192;28;19915;-78
2022/09/07 07:50:18;;;;;;;;;;;20.10;99.90;;;;;;5117220;28;19912;-77
2022/09/07 07:52:44;;;;;;;;;;;20.10;99.90;;;;;;5117389;28;19908;-78
2022/09/07 07:55:14;;;;;;;;;;;20.10;99.90;;;;;;5117127;28;19911;-79
2022/09/07 07:57:39;;;;;;;;;;;20.40;99.90;;;;;;5117068;28;20290;-79
2022/09/07 08:00:06;;;;;;;;;;;21.00;99.90;;;;;;5117207;28;19908;-79
2022/09/07 08:02:33;;;;;;;;;;;21.60;99.90;;;;;;5117720;28;19922;-78
2022/09/07 08:05:00;;;;;;;;;;;22.30;99.90;;;;;;5098608;28;19948;-77
2022/09/07 08:07:26;;;;;;;;;;;22.50;99.90;;;;;;5117338;28;19914;-77
2022/09/07 08:09:51;;;;;;;;;;;22.40;99.90;;;;;;5117055;28;19911;-79
2022/09/07 08:12:18;;;;;;;;;;;22.30;99.90;;;;;;5117009;28;19953;-79
2022/09/07 08:14:45;;;;;;;;;;;22.30;99.90;;;;;;5116826;28;19914;-78
2022/09/07 08:17:12;;;;;;;;;;;21.90;99.90;;;;;;5116723;28;19998;-78
2022/09/07 08:19:37;;;;;;;;;;;21.50;99.90;;;;;;5132577;27;19915;-78
2022/09/07 08:22:03;;;;;;;;;;;22.30;99.90;;;;;;5098337;28;20291;-78
2022/09/07 08:24:30;;;;;;;;;;;23.30;99.90;;;;;;5116586;28;19915;-79
2022/09/07 08:26:55;;;;;;;;;;;23.80;99.90;;;;;;5116633;28;19973;-77
2022/09/07 08:29:21;;;;;;;;;;;25.30;99.90;;;;;;5116378;28;20369;-78
2022/09/07 08:31:47;;;;;;;;;;;24.50;99.90;;;;;;5116391;28;19908;-79
2022/09/07 08:34:12;;;;;;;;;;;24.30;99.90;;;;;;5116095;28;19935;-79
2022/09/07 08:36:38;;;;;;;;;;;24.10;99.90;;;;;;5116501;28;20028;-77
2022/09/07 08:39:04;;;;;;;;;;;24.20;99.90;;;;;;5116172;28;20368;-78
2022/09/07 08:41:48;;;;;;;;;;;23.70;99.90;;;;;;5116672;28;20328;-79
2022/09/07 08:44:24;;;;;;;;;;;24.40;99.90;;;;;;5097583;28;19908;-78
2022/09/07 08:46:53;;;;;;;;;;;24.90;99.90;;;;;;5116242;28;19940;-79
2022/09/07 08:49:32;;;;;;;;;;;24.20;99.90;;;;;;5116435;28;20061;-78
2022/09/07 08:52:01;;;;;;;;;;;23.00;99.90;;;;;;5116309;28;19908;-79
2022/09/07 08:54:27;;;;;;;;;;;22.90;99.90;;;;;;5116007;28;20391;-77
2022/09/07 08:56:55;;;;;;;;;;;23.60;99.90;;;;;;5115944;28;19915;-79
2022/09/07 08:59:20;;;;;;;;;;;23.90;99.90;;;;;;5115926;28;19912;-78
2022/09/07 09:01:46;;;;;;;;;;;26.60;99.90;;;;;;5116380;28;19908;-77
2022/09/07 09:04:22;;;;;;;;;;;27.80;99.90;;;;;;5116105;28;19953;-75
2022/09/07 09:06:47;;;;;;;;;;;26.00;99.90;;;;;;5115798;28;19908;-76
2022/09/07 09:09:32;;;;;;;;;;;23.80;99.90;;;;;;5115602;28;19918;-75
2022/09/07 09:12:16;;;;;;;;;;;22.50;99.90;;;;;;5097317;28;19908;-76
2022/09/07 09:14:53;;;;;;;;;;;21.50;99.90;;;;;;5115780;28;19915;-75
2022/09/07 09:17:26;;;;;;;;;;;21.10;99.90;;;;;;5115616;28;20371;-75
2022/09/07 09:20:09;;;;;;;;;;;20.80;99.90;;;;;;5115733;28;19937;-77
2022/09/07 09:22:37;;;;;;;;;;;;;;;;;;5115518;28;19914;-74
2022/09/07 09:25:04;;;;;;;;;;;;;;;;;;5115373;28;20396;-77
2022/09/07 09:27:30;;;;;;;;;;;;;;;;;;5115726;28;19919;-76
2022/09/07 09:29:56;;;;;;;;;;;;;;;;;;5115573;28;19959;-73
2022/09/07 09:32:22;;;;;;;;;;;;;;;;;;5115442;28;19907;-76
2022/09/07 09:34:48;;;;;;;;;;;;;;;;;;5115264;28;19915;-76
2022/09/07 09:37:14;;;;;;;;;;;;;;;;;;5115118;28;19915;-75
2022/09/07 09:39:42;;;;;;;;;;;;;;;;;;5115543;28;20002;-76
2022/09/07 09:42:08;;;;;;;;;;;;;;;;;;5115049;28;19908;-74
2022/09/07 09:44:36;;;;;;;;;;;;;;;;;;5114173;28;19916;-75
2022/09/07 09:47:02;;;;;;;;;;;;;;;;;;5114920;28;19908;-77
2022/09/07 09:49:28;;;;;;;;;;;;;;;;;;5114849;28;19919;-77
2022/09/07 09:51:55;;;;;;;;;;;;;;;;;;5114853;28;19953;-73
2022/09/07 09:54:21;;;;;;;;;;;;;;;;;;5115185;28;19950;-73
2022/09/07 09:56:48;;;;;;;;;;;;;;;;;;5114827;28;19953;-76
2022/09/07 09:59:14;;;;;;;;;;;;;;;;;;5114859;28;19912;-75
2022/09/07 10:01:40;;;;;;;;;;;;;;;;;;5115209;28;19935;-75
2022/09/07 10:04:06;;;;;;;;;;;;;;;;;;5114641;28;19908;-75
2022/09/07 10:06:32;;;;;;;;;;;;;;;;;;5114646;28;19908;-73
2022/09/07 10:08:58;;;;;;;;;;;;;;;;;;5114512;28;19908;-73
2022/09/07 10:11:24;;;;;;;;;;;;;;;;;;5114841;28;19907;-74
2022/09/07 10:13:50;;;;;;;;;;;;;;;;;;5114449;28;19915;-74
2022/09/07 10:16:15;;;;;;;;;;;;;;;;;;5114789;28;19912;-73
2022/09/07 10:18:42;;;;;;;;;;;;;;;;;;5114676;28;19908;-75
2022/09/07 10:21:07;;;;;;;;;;;;;;;;;;5114291;28;19915;-74
2022/09/07 10:23:33;;;;;;;;;;;;;;;;;;5114403;28;19911;-74
2022/09/07 10:25:59;;;;;;;;;;;;;;;;;;5114390;28;19908;-74
2022/09/07 10:28:25;;;;;;;;;;;;;;;;;;5114438;28;19931;-75
2022/09/07 10:30:51;;;;;;;;;;;;;;;;;;5114211;28;20355;-74
2022/09/07 10:33:17;;;;;;;;;;;;;;;;;;5114266;28;19915;-75
2022/09/07 10:35:43;;;;;;;;;;;;;;;;;;5114424;28;19908;-76
2022/09/07 10:38:10;;;;;;;;;;;;;;;;;;5114216;28;19990;-76
2022/09/07 10:40:36;;;;;;;;;;;;;;;;;;5114257;28;19907;-74
2022/09/07 10:43:02;;;;;;;;;;;;;;;;;;5114126;28;19956;-74
2022/09/07 10:45:28;;;;;;;;;;;;;;;;;;5113826;28;19970;-76
2022/09/07 10:47:54;;;;;;;;;;;;;;;;;;5114105;28;19908;-75
2022/09/07 10:50:20;;;;;;;;;;;;;;;;;;5114114;28;19912;-76
2022/09/07 10:52:45;;;;;;;;;;;;;;;;;;5114030;28;19915;-75
2022/09/07 10:55:11;;;;;;;;;;;;;;;;;;5114240;28;19908;-75
2022/09/07 10:57:38;;;;;;;;;;;;;;;;;;5115848;28;19908;-77
2022/09/07 11:00:11;;;;;;;;;;;;;;;;;;5118335;28;19951;-75
2022/09/07 11:02:37;;;;;;;;;;;;;;;;;;5118759;28;20363;-75
2022/09/07 11:05:03;;;;;;;;;;;;;;;;;;5118484;28;19908;-75
2022/09/07 11:07:29;;;;;;;;;;;;;;;;;;5118391;28;19914;-76
2022/09/07 11:09:55;;;;;;;;;;;;;;;;;;5117950;28;19912;-75
2022/09/07 11:12:21;;;;;;;;;;;;;;;;;;5118046;28;20002;-77
2022/09/07 11:14:47;;;;;;;;;;;;;;;;;;5117929;28;19908;-76
2022/09/07 11:17:13;;;;;;;;;;;;;;;;;;5118255;28;19911;-76
2022/09/07 11:19:40;;;;;;;;;;;;;;;;;;5117834;28;19908;-75
2022/09/07 11:22:09;;;;;;;;;;;;;;;;;;5117670;28;19908;-75
2022/09/07 11:24:35;;;;;;;;;;;;;;;;;;5118186;28;19908;-76
2022/09/07 11:27:02;;;;;;;;;;;;;;;;;;5117861;28;19912;-76
2022/09/07 11:29:28;;;;;;;;;;;;;;;;;;5117607;28;19983;-75
2022/09/07 11:31:54;;;;;;;;;;;;;;;;;;5117588;28;19908;-76
2022/09/07 11:34:23;;;;;;;;;;;;;;;;;;5117583;28;20322;-76
2022/09/07 11:36:50;;;;;;;;;;;;;;;;;;5117955;28;19939;-77
2022/09/07 11:39:16;;;;;;;;;;;;;;;;;;5117816;28;20376;-76
2022/09/07 11:41:43;;;;;;;;;;;;;;;;;;5117457;28;19998;-75
2022/09/07 11:44:12;;;;;;;;;;;;;;;;;;5117267;28;19907;-75
2022/09/07 11:46:38;;;;;;;;;;;;;;;;;;5117388;28;20002;-76
2022/09/07 11:49:04;;;;;;;;;;;;;;;;;;5117500;28;19966;-78
2022/09/07 11:51:30;;;;;;;;;;;;;;;;;;5117221;28;19958;-77
2022/09/07 11:53:56;;;;;;;;;;;;;;;;;;5117238;28;19908;-77
2022/09/07 11:56:22;;;;;;;;;;;;;;;;;;5117182;28;19930;-76
2022/09/07 11:58:48;;;;;;;;;;;;;;;;;;5117278;28;20335;-75
2022/09/07 12:01:14;;;;;;;;;;;;;;;;;;5118147;28;19908;-77
2022/09/07 12:03:43;;;;;;;;;;;;;;;;;;5117029;28;19915;-75
2022/09/07 12:06:09;;;;;;;;;;;;;;;;;;5117533;28;20364;-75
2022/09/07 12:08:34;;;;;;;;;;;;;;;;;;5116378;28;19908;-77
2022/09/07 12:11:00;;;;;;;;;;;;;;;;;;5117075;28;19915;-76
2022/09/07 12:13:26;;;;;;;;;;;;;;;;;;5117173;28;20066;-77
2022/09/07 12:15:52;;;;;;;;;;;;;;;;;;5117035;28;19908;-78
2022/09/07 12:18:18;;;;;;;;;;;;;;;;;;5116715;28;19911;-76
2022/09/07 12:20:44;;;;;;;;;;;;;;;;;;5098115;28;19908;-75
2022/09/07 12:23:10;;;;;;;;;;;;;;;;;;5116633;28;19912;-76
2022/09/07 12:25:36;;;;;;;;;;;;;;;;;;5116811;28;19961;-76
2022/09/07 12:28:02;;;;;;;;;;;;;;;;;;5116557;28;19908;-77
2022/09/07 12:30:29;;;;;;;;;;;;;;;;;;5116669;28;19973;-76
2022/09/07 12:32:55;;;;;;;;;;;;;;;;;;5116801;28;19915;-74
2022/09/07 12:35:21;;;;;;;;;;;;;;;;;;5116569;28;20342;-76
2022/09/07 12:37:47;;;;;;;;;;;;;;;;;;5116318;28;19908;-76
2022/09/07 12:40:13;;;;;;;;;;;;;;;;;;5116541;28;19908;-75
2022/09/07 12:42:39;;;;;;;;;;;;;;;;;;5116573;28;20336;-76
2022/09/07 12:45:05;;;;;;;;;;;;;;;;;;5115968;28;19920;-77
2022/09/07 12:47:31;;;;;;;;;;;;;;;;;;5116154;28;19935;-75
2022/09/07 12:49:57;;;;;;;;;;;;;;;;;;5116091;28;20265;-75
2022/09/07 12:52:22;;;;;;;;;;;;;;;;;;5116059;28;20375;-74
2022/09/07 12:54:48;;;;;;;;;;;;;;;;;;5115973;28;19914;-76
2022/09/07 12:57:14;;;;;;;;;;;;;;;;;;5116088;28;19908;-75
2022/09/07 12:59:40;;;;;;;;;;;;;;;;;;5115949;28;20294;-76
2022/09/07 13:02:06;;;;;;;;;;;;;;;;;;5116587;28;20402;-76
2022/09/07 13:04:32;;;;;;;;;;;;;;;;;;5115866;28;19914;-78
2022/09/07 13:06:58;;;;;;;;;;;;;;;;;;5115770;28;19999;-78
2022/09/07 13:09:24;;;;;;;;;;;;;;;;;;5115796;28;19912;-76
2022/09/07 13:11:50;;;;;;;;;;;;;;;;;;5115681;28;19908;-76
2022/09/07 13:14:16;;;;;;;;;;;;;;;;;;5115650;28;20280;-75
2022/09/07 13:16:42;;;;;;;;;;;;;;;;;;5115629;28;19908;-76
2022/09/07 13:19:08;;;;;;;;;;;;;;;;;;5115069;28;19908;-77
2022/09/07 13:21:34;;;;;;;;;;;;;;;;;;5115080;28;19914;-75
2022/09/07 13:24:00;;;;;;;;;;;;;;;;;;5115447;28;19908;-76
2022/09/07 13:26:26;;;;;;;;;;;;;;;;;;5115742;28;19951;-77
2022/09/07 13:28:52;;;;;;;;;;;;;;;;;;5115343;28;19908;-77
2022/09/07 13:31:18;;;;;;;;;;;;;;;;;;5115379;28;19912;-77
2022/09/07 13:33:44;;;;;;;;;;;;;;;;;;5096971;28;20018;-76
2022/09/07 13:36:10;;;;;;;;;;;;;;;;;;5115186;28;20002;-75
2022/09/07 13:38:36;;;;;;;;;;;;;;;;;;5115132;28;19943;-76
2022/09/07 13:43:47;;;;;;;;;;;;;;;;;;5114793;28;19915;-77
2022/09/07 13:46:13;;;;;;;;;;;;;;;;;;5114562;28;19920;-75
2022/09/07 13:48:40;;;;;;;;;;;;;;;;;;5115160;28;19915;-77
2022/09/07 13:51:08;;;;;;;;;;;;;;;;;;5114819;28;19981;-76
2022/09/07 13:53:34;;;;;;;;;;;;;;;;;;5096895;28;19931;-77
2022/09/07 13:56:00;;;;;;;;;;;;;;;;;;5114829;28;20286;-78
2022/09/07 13:58:26;;;;;;;;;;;;;;;;;;5114817;28;19915;-77
2022/09/07 14:00:52;;;;;;;;;;;;;;;;;;5115137;28;19911;-77
2022/09/07 14:03:18;;;;;;;;;;;;;;;;;;5115540;28;19908;-77
2022/09/07 14:05:43;;;;;;;;;;;;;;;;;;5114908;28;20387;-75
2022/09/07 14:08:09;;;;;;;;;;;;;;;;;;5114631;28;19922;-75
2022/09/07 14:10:35;;;;;;;;;;;;;;;;;;5114603;28;19912;-76
2022/09/07 14:13:01;;;;;;;;;;;;;;;;;;5114539;28;19947;-76
2022/09/07 14:15:27;;;;;;;;;;;;;;;;;;5114943;28;19915;-75
2022/09/07 14:17:53;;;;;;;;;;;;;;;;;;5114485;28;19915;-76
2022/09/07 14:20:19;;;;;;;;;;;;;;;;;;5114432;28;20028;-77
2022/09/07 14:22:45;;;;;;;;;;;;;;;;;;5114536;28;19954;-75
2022/09/07 14:25:11;;;;;;;;;;;;;;;;;;5114389;28;19919;-75
2022/09/07 14:27:37;;;;;;;;;;;;;;;;;;5114305;28;19907;-75
2022/09/07 14:30:03;;;;;;;;;;;;;;;;;;5114196;28;20056;-78
2022/09/07 14:32:30;;;;;;;;;;;;;;;;;;5105605;28;19950;-78
2022/09/07 14:34:57;;;;;;;;;;;;;;;;;;5075140;28;19908;-78
2022/09/07 14:37:23;;;;;;;;;;;;;;;;;;5093528;28;19908;-78
2022/09/07 14:39:49;;;;;;;;;;;;;;;;;;5093426;28;19908;-78
2022/09/07 14:42:15;;;;;;;;;;;;;;;;;;5089064;28;19908;-78
2022/09/07 14:44:44;;;;;;;;;;;;;;;;;;5113594;28;19915;-77
2022/09/07 14:47:11;;;;;;;;;;;;;;;;;;5113668;28;20375;-79
2022/09/07 14:49:37;;;;;;;;;;;;;;;;;;5113752;28;19919;-78
2022/09/07 14:52:03;;;;;;;;;;;;;;;;;;5113418;28;19908;-78
2022/09/07 14:54:30;;;;;;;;;;;;;;;;;;5113725;28;19931;-78
2022/09/07 14:56:59;;;;;;;;;;;;;;;;;;5113723;28;19957;-77
2022/09/07 14:59:26;;;;;;;;;;;;;;;;;;5113390;28;19991;-79
2022/09/07 15:01:52;;;;;;;;;;;;;;;;;;5103023;28;19995;-78
2022/09/07 15:04:18;;;;;;;;;;;;;;;;;;5093258;28;19940;-77
2022/09/07 15:06:45;;;;;;;;;;;;;;;;;;5093300;28;20403;-79
2022/09/07 15:09:11;;;;;;;;;;;;;;;;;;5093274;28;19919;-77
2022/09/07 15:11:37;;;;;;;;;;;;;;;;;;5092625;28;19909;-79
2022/09/07 15:14:03;;;;;;;;;;;;;;;;;;5093100;28;19908;-77